sensor_id;sensor_type;location;lat;lon;timestamp;temperature;humidity
26505;DHT22;19493;48.042;7.584;2024-01-25T00:00:44;9.60;99.90
26505;DHT22;19493;48.042;7.584;2024-01-25T00:03:10;9.60;99.90
26505;DHT22;19493;48.042;7.584;2024-01-25T00:05:35;9.50;99.90
26505;DHT22;19493;48.042;7.584;2024-01-25T00:08:01;9.50;99.90
26505;DHT22;19493;48.042;7.584;2024-01-25T00:10:26;9.50;99.90
26505;DHT22;19493;48.042;7.584;2024-01-25T00:12:52;9.40;99.90
26505;DHT22;19493;48.042;7.584;2024-01-25T00:15:17;9.40;99.90
26505;DHT22;19493;48.042;7.584;2024-01-25T00:17:43;9.40;99.90
26505;DHT22;19493;48.042;7.584;2024-01-25T00:20:09;9.30;99.90
26505;DHT22;19493;48.042;7.584;2024-01-25T00:22:36;9.40;99.90
26505;DHT22;19493;48.042;7.584;2024-01-25T00:25:03;9.30;99.90
26505;DHT22;19493;48.042;7.584;2024-01-25T00:27:29;9.30;99.90
26505;DHT22;19493;48.042;7.584;2024-01-25T00:29:54;9.40;99.90
26505;DHT22;19493;48.042;7.584;2024-01-25T00:32:20;9.40;99.90
26505;DHT22;19493;48.042;7.584;2024-01-25T00:34:46;9.40;99.90
26505;DHT22;19493;48.042;7.584;2024-01-25T00:37:11;9.40;99.90
26505;DHT22;19493;48.042;7.584;2024-01-25T00:39:37;9.40;99.90
26505;DHT22;19493;48.042;7.584;2024-01-25T00:42:04;9.40;99.90
26505;DHT22;19493;48.042;7.584;2024-01-25T00:44:31;9.40;99.90
26505;DHT22;19493;48.042;7.584;2024-01-25T00:46:57;9.40;99.90
26505;DHT22;19493;48.042;7.584;2024-01-25T00:49:23;9.40;99.90
26505;DHT22;19493;48.042;7.584;2024-01-25T00:51:49;9.40;99.90
26505;DHT22;19493;48.042;7.584;2024-01-25T00:54:16;9.30;99.90
26505;DHT22;19493;48.042;7.584;2024-01-25T00:56:41;9.30;99.90
26505;DHT22;19493;48.042;7.584;2024-01-25T00:59:07;9.30;99.90
26505;DHT22;19493;48.042;7.584;2024-01-25T01:01:33;9.30;99.90
26505;DHT22;19493;48.042;7.584;2024-01-25T01:03:59;9.30;99.90
26505;DHT22;19493;48.042;7.584;2024-01-25T01:06:26;9.30;99.90
26505;DHT22;19493;48.042;7.584;2024-01-25T01:08:51;9.30;99.90
26505;DHT22;19493;48.042;7.584;2024-01-25T01:11:18;9.30;99.90
26505;DHT22;19493;48.042;7.584;2024-01-25T01:13:44;9.30;99.90
26505;DHT22;19493;48.042;7.584;2024-01-25T01:16:10;9.20;99.90
26505;DHT22;19493;48.042;7.584;2024-01-25T01:18:35;9.20;99.90
26505;DHT22;19493;48.042;7.584;2024-01-25T01:21:01;9.20;99.90
26505;DHT22;19493;48.042;7.584;2024-01-25T01:23:26;9.20;99.90
26505;DHT22;19493;48.042;7.584;2024-01-25T01:25:52;9.20;99.90
26505;DHT22;19493;48.042;7.584;2024-01-25T01:28:18;9.20;99.90
26505;DHT22;19493;48.042;7.584;2024-01-25T01:30:43;9.20;99.90
26505;DHT22;19493;48.042;7.584;2024-01-25T01:33:09;9.10;99.90
26505;DHT22;19493;48.042;7.584;2024-01-25T01:35:35;9.10;99.90
26505;DHT22;19493;48.042;7.584;2024-01-25T01:38:00;9.10;99.90
26505;DHT22;19493;48.042;7.584;2024-01-25T01:40:26;9.10;99.90
26505;DHT22;19493;48.042;7.584;2024-01-25T01:42:51;9.10;99.90
26505;DHT22;19493;48.042;7.584;2024-01-25T01:45:17;9.20;99.90
26505;DHT22;19493;48.042;7.584;2024-01-25T01:47:43;9.10;99.90
26505;DHT22;19493;48.042;7.584;2024-01-25T01:50:09;9.10;99.90
26505;DHT22;19493;48.042;7.584;2024-01-25T01:52:35;9.10;99.90
26505;DHT22;19493;48.042;7.584;2024-01-25T01:55:01;9.10;99.90
26505;DHT22;19493;48.042;7.584;2024-01-25T01:57:28;9.10;99.90
26505;DHT22;19493;48.042;7.584;2024-01-25T01:59:53;9.10;99.90
26505;DHT22;19493;48.042;7.584;2024-01-25T02:02:19;9.10;99.90
26505;DHT22;19493;48.042;7.584;2024-01-25T02:04:45;9.20;99.90
26505;DHT22;19493;48.042;7.584;2024-01-25T02:07:11;9.10;99.90
26505;DHT22;19493;48.042;7.584;2024-01-25T02:09:37;9.10;99.90
26505;DHT22;19493;48.042;7.584;2024-01-25T02:12:03;9.10;99.90
26505;DHT22;19493;48.042;7.584;2024-01-25T02:14:30;9.00;99.90
26505;DHT22;19493;48.042;7.584;2024-01-25T02:16:56;9.00;99.90
26505;DHT22;19493;48.042;7.584;2024-01-25T02:19:21;9.00;99.90
26505;DHT22;19493;48.042;7.584;2024-01-25T02:21:47;9.00;99.90
26505;DHT22;19493;48.042;7.584;2024-01-25T02:24:14;9.00;99.90
26505;DHT22;19493;48.042;7.584;2024-01-25T02:26:40;9.00;99.90
26505;DHT22;19493;48.042;7.584;2024-01-25T02:29:05;9.00;99.90
26505;DHT22;19493;48.042;7.584;2024-01-25T02:31:32;9.00;99.90
26505;DHT22;19493;48.042;7.584;2024-01-25T02:33:58;9.00;99.90
26505;DHT22;19493;48.042;7.584;2024-01-25T02:36:24;9.00;99.90
26505;DHT22;19493;48.042;7.584;2024-01-25T02:38:49;9.00;99.90
26505;DHT22;19493;48.042;7.584;2024-01-25T02:41:15;9.00;99.90
26505;DHT22;19493;48.042;7.584;2024-01-25T02:43:40;9.00;99.90
26505;DHT22;19493;48.042;7.584;2024-01-25T02:46:07;9.00;99.90
26505;DHT22;19493;48.042;7.584;2024-01-25T02:48:33;9.10;99.90
26505;DHT22;19493;48.042;7.584;2024-01-25T02:50:58;9.10;99.90
26505;DHT22;19493;48.042;7.584;2024-01-25T02:53:24;9.10;99.90
26505;DHT22;19493;48.042;7.584;2024-01-25T02:55:49;9.10;99.90
26505;DHT22;19493;48.042;7.584;2024-01-25T02:58:15;9.10;99.90
26505;DHT22;19493;48.042;7.584;2024-01-25T03:00:41;9.10;99.90
26505;DHT22;19493;48.042;7.584;2024-01-25T03:03:06;9.10;99.90
26505;DHT22;19493;48.042;7.584;2024-01-25T03:05:32;9.10;99.90
26505;DHT22;19493;48.042;7.584;2024-01-25T03:07:58;9.10;99.90
26505;DHT22;19493;48.042;7.584;2024-01-25T03:10:23;9.00;99.90
26505;DHT22;19493;48.042;7.584;2024-01-25T03:12:49;9.00;99.90
26505;DHT22;19493;48.042;7.584;2024-01-25T03:15:14;9.00;99.90
26505;DHT22;19493;48.042;7.584;2024-01-25T03:17:40;9.00;99.90
26505;DHT22;19493;48.042;7.584;2024-01-25T03:20:06;9.00;99.90
26505;DHT22;19493;48.042;7.584;2024-01-25T03:22:32;9.00;99.90
26505;DHT22;19493;48.042;7.584;2024-01-25T03:24:58;9.00;99.90
26505;DHT22;19493;48.042;7.584;2024-01-25T03:27:23;9.10;99.90
26505;DHT22;19493;48.042;7.584;2024-01-25T03:29:49;9.10;99.90
26505;DHT22;19493;48.042;7.584;2024-01-25T03:32:14;9.00;99.90
26505;DHT22;19493;48.042;7.584;2024-01-25T03:34:40;9.00;99.90
26505;DHT22;19493;48.042;7.584;2024-01-25T03:37:06;9.00;99.90
26505;DHT22;19493;48.042;7.584;2024-01-25T03:39:32;9.00;99.90
26505;DHT22;19493;48.042;7.584;2024-01-25T03:41:57;8.90;99.90
26505;DHT22;19493;48.042;7.584;2024-01-25T03:44:23;9.00;99.90
26505;DHT22;19493;48.042;7.584;2024-01-25T03:46:49;9.00;99.90
26505;DHT22;19493;48.042;7.584;2024-01-25T03:49:15;9.00;99.90
26505;DHT22;19493;48.042;7.584;2024-01-25T03:51:40;9.00;99.90
26505;DHT22;19493;48.042;7.584;2024-01-25T03:54:06;8.90;99.90
26505;DHT22;19493;48.042;7.584;2024-01-25T03:56:31;8.90;99.90
26505;DHT22;19493;48.042;7.584;2024-01-25T03:58:57;8.90;99.90
26505;DHT22;19493;48.042;7.584;2024-01-25T04:01:22;8.80;99.90
26505;DHT22;19493;48.042;7.584;2024-01-25T04:03:48;8.80;99.90
26505;DHT22;19493;48.042;7.584;2024-01-25T04:06:13;8.90;99.90
26505;DHT22;19493;48.042;7.584;2024-01-25T04:08:39;8.90;99.90
26505;DHT22;19493;48.042;7.584;2024-01-25T04:11:04;8.90;99.90
26505;DHT22;19493;48.042;7.584;2024-01-25T04:13:30;8.90;99.90
26505;DHT22;19493;48.042;7.584;2024-01-25T04:15:56;8.90;99.90
26505;DHT22;19493;48.042;7.584;2024-01-25T04:18:21;8.90;99.90
26505;DHT22;19493;48.042;7.584;2024-01-25T04:20:47;8.80;99.90
26505;DHT22;19493;48.042;7.584;2024-01-25T04:23:12;8.90;99.90
26505;DHT22;19493;48.042;7.584;2024-01-25T04:25:38;8.80;99.90
26505;DHT22;19493;48.042;7.584;2024-01-25T04:28:03;8.80;99.90
26505;DHT22;19493;48.042;7.584;2024-01-25T04:30:29;8.80;99.90
26505;DHT22;19493;48.042;7.584;2024-01-25T04:32:56;8.90;99.90
26505;DHT22;19493;48.042;7.584;2024-01-25T04:35:22;8.90;99.90
26505;DHT22;19493;48.042;7.584;2024-01-25T04:37:47;8.80;99.90
26505;DHT22;19493;48.042;7.584;2024-01-25T04:40:13;8.80;99.90
26505;DHT22;19493;48.042;7.584;2024-01-25T04:42:38;8.80;99.90
26505;DHT22;19493;48.042;7.584;2024-01-25T04:45:04;8.80;99.90
26505;DHT22;19493;48.042;7.584;2024-01-25T04:47:30;8.80;99.90
26505;DHT22;19493;48.042;7.584;2024-01-25T04:49:56;8.80;99.90
26505;DHT22;19493;48.042;7.584;2024-01-25T04:52:21;8.80;99.90
26505;DHT22;19493;48.042;7.584;2024-01-25T04:54:47;8.80;99.90
26505;DHT22;19493;48.042;7.584;2024-01-25T04:57:12;8.80;99.90
26505;DHT22;19493;48.042;7.584;2024-01-25T04:59:38;8.70;99.90
26505;DHT22;19493;48.042;7.584;2024-01-25T05:02:04;8.70;99.90
26505;DHT22;19493;48.042;7.584;2024-01-25T05:04:29;8.70;99.90
26505;DHT22;19493;48.042;7.584;2024-01-25T05:06:56;8.70;99.90
26505;DHT22;19493;48.042;7.584;2024-01-25T05:09:22;8.60;99.90
26505;DHT22;19493;48.042;7.584;2024-01-25T05:11:47;8.60;99.90
26505;DHT22;19493;48.042;7.584;2024-01-25T05:14:13;8.60;99.90
26505;DHT22;19493;48.042;7.584;2024-01-25T05:16:39;8.60;99.90
26505;DHT22;19493;48.042;7.584;2024-01-25T05:19:04;8.60;99.90
26505;DHT22;19493;48.042;7.584;2024-01-25T05:21:30;8.60;99.90
26505;DHT22;19493;48.042;7.584;2024-01-25T05:23:55;8.60;99.90
26505;DHT22;19493;48.042;7.584;2024-01-25T05:26:21;8.50;99.90
26505;DHT22;19493;48.042;7.584;2024-01-25T05:28:46;8.50;99.90
26505;DHT22;19493;48.042;7.584;2024-01-25T05:31:12;8.50;99.90
26505;DHT22;19493;48.042;7.584;2024-01-25T05:33:39;8.50;99.90
26505;DHT22;19493;48.042;7.584;2024-01-25T05:36:05;8.50;99.90
26505;DHT22;19493;48.042;7.584;2024-01-25T05:38:31;8.40;99.90
26505;DHT22;19493;48.042;7.584;2024-01-25T05:40:57;8.40;99.90
26505;DHT22;19493;48.042;7.584;2024-01-25T05:43:23;8.40;99.90
26505;DHT22;19493;48.042;7.584;2024-01-25T05:45:48;8.40;99.90
26505;DHT22;19493;48.042;7.584;2024-01-25T05:48:14;8.40;99.90
26505;DHT22;19493;48.042;7.584;2024-01-25T05:50:40;8.40;99.90
26505;DHT22;19493;48.042;7.584;2024-01-25T05:53:06;8.40;99.90
26505;DHT22;19493;48.042;7.584;2024-01-25T05:55:31;8.30;99.90
26505;DHT22;19493;48.042;7.584;2024-01-25T05:57:57;8.30;99.90
26505;DHT22;19493;48.042;7.584;2024-01-25T06:00:22;8.30;99.90
26505;DHT22;19493;48.042;7.584;2024-01-25T06:02:48;8.30;99.90
26505;DHT22;19493;48.042;7.584;2024-01-25T06:05:14;8.30;99.90
26505;DHT22;19493;48.042;7.584;2024-01-25T06:07:39;8.30;99.90
26505;DHT22;19493;48.042;7.584;2024-01-25T06:10:07;8.30;99.90
26505;DHT22;19493;48.042;7.584;2024-01-25T06:12:33;8.20;99.90
26505;DHT22;19493;48.042;7.584;2024-01-25T06:14:58;8.20;99.90
26505;DHT22;19493;48.042;7.584;2024-01-25T06:17:24;8.20;99.90
26505;DHT22;19493;48.042;7.584;2024-01-25T06:19:49;8.20;99.90
26505;DHT22;19493;48.042;7.584;2024-01-25T06:22:15;8.20;99.90
26505;DHT22;19493;48.042;7.584;2024-01-25T06:24:42;8.20;99.90
26505;DHT22;19493;48.042;7.584;2024-01-25T06:27:09;8.20;99.90
26505;DHT22;19493;48.042;7.584;2024-01-25T06:29:35;8.20;99.90
26505;DHT22;19493;48.042;7.584;2024-01-25T06:32:00;8.20;99.90
26505;DHT22;19493;48.042;7.584;2024-01-25T06:34:26;8.20;99.90
26505;DHT22;19493;48.042;7.584;2024-01-25T06:36:51;8.20;99.90
26505;DHT22;19493;48.042;7.584;2024-01-25T06:39:17;8.20;99.90
26505;DHT22;19493;48.042;7.584;2024-01-25T06:41:42;8.20;99.90
26505;DHT22;19493;48.042;7.584;2024-01-25T06:44:08;8.20;99.90
26505;DHT22;19493;48.042;7.584;2024-01-25T06:46:34;8.20;99.90
26505;DHT22;19493;48.042;7.584;2024-01-25T06:48:59;8.20;99.90
26505;DHT22;19493;48.042;7.584;2024-01-25T06:51:25;8.20;99.90
26505;DHT22;19493;48.042;7.584;2024-01-25T06:53:50;8.20;99.90
26505;DHT22;19493;48.042;7.584;2024-01-25T06:56:16;8.20;99.90
26505;DHT22;19493;48.042;7.584;2024-01-25T06:58:42;8.20;99.90
26505;DHT22;19493;48.042;7.584;2024-01-25T07:01:07;8.20;99.90
26505;DHT22;19493;48.042;7.584;2024-01-25T07:03:33;8.20;99.90
26505;DHT22;19493;48.042;7.584;2024-01-25T07:05:59;8.20;99.90
26505;DHT22;19493;48.042;7.584;2024-01-25T07:08:24;8.20;99.90
26505;DHT22;19493;48.042;7.584;2024-01-25T07:10:50;8.20;99.90
26505;DHT22;19493;48.042;7.584;2024-01-25T07:13:16;8.20;99.90
26505;DHT22;19493;48.042;7.584;2024-01-25T07:15:41;8.20;99.90
26505;DHT22;19493;48.042;7.584;2024-01-25T07:18:07;8.20;99.90
26505;DHT22;19493;48.042;7.584;2024-01-25T07:20:33;8.20;99.90
26505;DHT22;19493;48.042;7.584;2024-01-25T07:22:59;8.20;99.90
26505;DHT22;19493;48.042;7.584;2024-01-25T07:25:24;8.20;99.90
26505;DHT22;19493;48.042;7.584;2024-01-25T07:27:50;8.20;99.90
26505;DHT22;19493;48.042;7.584;2024-01-25T07:30:15;8.20;99.90
26505;DHT22;19493;48.042;7.584;2024-01-25T07:32:41;8.20;99.90
26505;DHT22;19493;48.042;7.584;2024-01-25T07:35:08;8.20;99.90
26505;DHT22;19493;48.042;7.584;2024-01-25T07:37:35;8.20;99.90
26505;DHT22;19493;48.042;7.584;2024-01-25T07:40:01;8.30;99.90
26505;DHT22;19493;48.042;7.584;2024-01-25T07:42:28;8.30;99.90
26505;DHT22;19493;48.042;7.584;2024-01-25T07:44:54;8.20;99.90
26505;DHT22;19493;48.042;7.584;2024-01-25T07:47:19;8.20;99.90
26505;DHT22;19493;48.042;7.584;2024-01-25T07:49:45;8.30;99.90
26505;DHT22;19493;48.042;7.584;2024-01-25T07:52:11;8.30;99.90
26505;DHT22;19493;48.042;7.584;2024-01-25T07:54:36;8.30;99.90
26505;DHT22;19493;48.042;7.584;2024-01-25T07:57:02;8.30;99.90
26505;DHT22;19493;48.042;7.584;2024-01-25T07:59:27;8.40;99.90
26505;DHT22;19493;48.042;7.584;2024-01-25T08:01:53;8.30;99.90
26505;DHT22;19493;48.042;7.584;2024-01-25T08:04:20;8.40;99.90
26505;DHT22;19493;48.042;7.584;2024-01-25T08:06:45;8.40;99.90
26505;DHT22;19493;48.042;7.584;2024-01-25T08:09:11;8.50;99.90
26505;DHT22;19493;48.042;7.584;2024-01-25T08:11:37;8.50;99.90
26505;DHT22;19493;48.042;7.584;2024-01-25T08:14:02;8.50;99.90
26505;DHT22;19493;48.042;7.584;2024-01-25T08:16:29;8.60;99.90
26505;DHT22;19493;48.042;7.584;2024-01-25T08:18:55;8.70;99.90
26505;DHT22;19493;48.042;7.584;2024-01-25T08:21:20;8.80;99.90
26505;DHT22;19493;48.042;7.584;2024-01-25T08:23:46;8.80;99.90
26505;DHT22;19493;48.042;7.584;2024-01-25T08:26:12;8.90;99.90
26505;DHT22;19493;48.042;7.584;2024-01-25T08:28:41;8.90;99.90
26505;DHT22;19493;48.042;7.584;2024-01-25T08:31:11;9.00;99.90
26505;DHT22;19493;48.042;7.584;2024-01-25T08:33:38;9.00;99.90
26505;DHT22;19493;48.042;7.584;2024-01-25T08:36:07;9.10;99.90
26505;DHT22;19493;48.042;7.584;2024-01-25T08:38:32;9.10;99.90
26505;DHT22;19493;48.042;7.584;2024-01-25T08:40:58;9.20;99.90
26505;DHT22;19493;48.042;7.584;2024-01-25T08:43:23;9.30;99.90
26505;DHT22;19493;48.042;7.584;2024-01-25T08:45:49;9.40;99.90
26505;DHT22;19493;48.042;7.584;2024-01-25T08:48:14;9.50;99.90
26505;DHT22;19493;48.042;7.584;2024-01-25T08:50:40;9.50;99.90
26505;DHT22;19493;48.042;7.584;2024-01-25T08:53:05;9.50;99.90
26505;DHT22;19493;48.042;7.584;2024-01-25T08:55:32;9.60;99.90
26505;DHT22;19493;48.042;7.584;2024-01-25T08:57:57;9.60;99.90
26505;DHT22;19493;48.042;7.584;2024-01-25T09:00:23;9.60;99.90
26505;DHT22;19493;48.042;7.584;2024-01-25T09:02:48;9.50;99.90
26505;DHT22;19493;48.042;7.584;2024-01-25T09:05:14;9.50;99.90
26505;DHT22;19493;48.042;7.584;2024-01-25T09:07:40;9.40;99.90
26505;DHT22;19493;48.042;7.584;2024-01-25T09:10:06;9.40;99.90
26505;DHT22;19493;48.042;7.584;2024-01-25T09:12:31;9.40;99.90
26505;DHT22;19493;48.042;7.584;2024-01-25T09:14:57;9.40;99.90
26505;DHT22;19493;48.042;7.584;2024-01-25T09:17:23;9.40;99.90
26505;DHT22;19493;48.042;7.584;2024-01-25T09:19:49;9.40;99.90
26505;DHT22;19493;48.042;7.584;2024-01-25T09:22:17;9.50;99.90
26505;DHT22;19493;48.042;7.584;2024-01-25T09:24:45;9.60;99.90
26505;DHT22;19493;48.042;7.584;2024-01-25T09:27:11;9.60;99.90
26505;DHT22;19493;48.042;7.584;2024-01-25T09:29:38;9.60;99.90
26505;DHT22;19493;48.042;7.584;2024-01-25T09:32:06;9.70;99.90
26505;DHT22;19493;48.042;7.584;2024-01-25T09:34:31;9.80;99.90
26505;DHT22;19493;48.042;7.584;2024-01-25T09:36:57;10.00;99.90
26505;DHT22;19493;48.042;7.584;2024-01-25T09:39:22;10.10;99.90
26505;DHT22;19493;48.042;7.584;2024-01-25T09:41:48;10.10;99.90
26505;DHT22;19493;48.042;7.584;2024-01-25T09:44:14;10.00;99.90
26505;DHT22;19493;48.042;7.584;2024-01-25T09:46:40;9.90;99.90
26505;DHT22;19493;48.042;7.584;2024-01-25T09:49:07;9.90;99.90
26505;DHT22;19493;48.042;7.584;2024-01-25T09:51:40;10.00;99.90
26505;DHT22;19493;48.042;7.584;2024-01-25T09:54:07;10.20;99.90
26505;DHT22;19493;48.042;7.584;2024-01-25T09:56:33;10.70;99.90
26505;DHT22;19493;48.042;7.584;2024-01-25T09:59:00;11.30;99.90
26505;DHT22;19493;48.042;7.584;2024-01-25T10:01:26;12.10;99.90
26505;DHT22;19493;48.042;7.584;2024-01-25T10:03:52;12.40;99.90
26505;DHT22;19493;48.042;7.584;2024-01-25T10:06:18;12.50;99.90
26505;DHT22;19493;48.042;7.584;2024-01-25T10:08:44;12.40;99.90
26505;DHT22;19493;48.042;7.584;2024-01-25T10:11:10;12.20;99.90
26505;DHT22;19493;48.042;7.584;2024-01-25T10:13:44;11.90;99.90
26505;DHT22;19493;48.042;7.584;2024-01-25T10:16:14;11.60;99.90
26505;DHT22;19493;48.042;7.584;2024-01-25T10:18:41;11.30;99.90
26505;DHT22;19493;48.042;7.584;2024-01-25T10:21:09;11.00;99.90
26505;DHT22;19493;48.042;7.584;2024-01-25T10:23:35;10.80;99.90
26505;DHT22;19493;48.042;7.584;2024-01-25T10:26:00;10.50;99.90
26505;DHT22;19493;48.042;7.584;2024-01-25T10:28:26;10.30;99.90
26505;DHT22;19493;48.042;7.584;2024-01-25T10:31:00;10.20;99.90
26505;DHT22;19493;48.042;7.584;2024-01-25T10:33:27;10.30;99.90
26505;DHT22;19493;48.042;7.584;2024-01-25T10:35:59;10.60;99.90
26505;DHT22;19493;48.042;7.584;2024-01-25T10:38:31;10.80;99.90
26505;DHT22;19493;48.042;7.584;2024-01-25T10:41:01;11.00;99.90
26505;DHT22;19493;48.042;7.584;2024-01-25T10:43:27;11.20;99.90
26505;DHT22;19493;48.042;7.584;2024-01-25T10:45:53;11.50;99.90
26505;DHT22;19493;48.042;7.584;2024-01-25T10:48:21;11.90;99.90
26505;DHT22;19493;48.042;7.584;2024-01-25T10:50:48;12.40;99.90
26505;DHT22;19493;48.042;7.584;2024-01-25T10:53:15;12.90;99.90
26505;DHT22;19493;48.042;7.584;2024-01-25T10:55:41;13.10;99.90
26505;DHT22;19493;48.042;7.584;2024-01-25T10:58:07;13.10;99.90
26505;DHT22;19493;48.042;7.584;2024-01-25T11:00:35;13.00;99.90
26505;DHT22;19493;48.042;7.584;2024-01-25T11:03:01;12.80;99.90
26505;DHT22;19493;48.042;7.584;2024-01-25T11:05:26;12.50;99.90
26505;DHT22;19493;48.042;7.584;2024-01-25T11:07:52;12.30;99.90
26505;DHT22;19493;48.042;7.584;2024-01-25T11:12:59;12.50;99.90
26505;DHT22;19493;48.042;7.584;2024-01-25T11:15:36;12.70;99.90
26505;DHT22;19493;48.042;7.584;2024-01-25T11:18:03;12.90;99.90
26505;DHT22;19493;48.042;7.584;2024-01-25T11:20:33;13.00;99.90
26505;DHT22;19493;48.042;7.584;2024-01-25T11:23:06;12.90;99.90
26505;DHT22;19493;48.042;7.584;2024-01-25T11:25:37;12.80;99.90
26505;DHT22;19493;48.042;7.584;2024-01-25T11:28:04;12.50;99.90
26505;DHT22;19493;48.042;7.584;2024-01-25T11:30:34;12.30;99.90
26505;DHT22;19493;48.042;7.584;2024-01-25T11:33:00;12.20;99.90
26505;DHT22;19493;48.042;7.584;2024-01-25T11:35:26;12.20;99.90
26505;DHT22;19493;48.042;7.584;2024-01-25T11:37:52;12.20;99.90
26505;DHT22;19493;48.042;7.584;2024-01-25T11:40:18;12.30;99.90
26505;DHT22;19493;48.042;7.584;2024-01-25T11:42:46;12.20;99.90
26505;DHT22;19493;48.042;7.584;2024-01-25T11:45:12;12.20;99.90
26505;DHT22;19493;48.042;7.584;2024-01-25T11:47:40;12.30;99.90
26505;DHT22;19493;48.042;7.584;2024-01-25T11:50:07;12.50;99.90
26505;DHT22;19493;48.042;7.584;2024-01-25T11:52:33;12.70;99.90
26505;DHT22;19493;48.042;7.584;2024-01-25T11:55:09;12.80;99.90
26505;DHT22;19493;48.042;7.584;2024-01-25T11:57:37;12.80;99.90
26505;DHT22;19493;48.042;7.584;2024-01-25T12:00:04;12.90;99.90
26505;DHT22;19493;48.042;7.584;2024-01-25T12:02:31;13.00;99.90
26505;DHT22;19493;48.042;7.584;2024-01-25T12:04:57;13.10;99.90
26505;DHT22;19493;48.042;7.584;2024-01-25T12:07:23;13.10;99.90
26505;DHT22;19493;48.042;7.584;2024-01-25T12:10:07;13.10;99.90
26505;DHT22;19493;48.042;7.584;2024-01-25T12:12:37;13.20;99.90
26505;DHT22;19493;48.042;7.584;2024-01-25T12:15:05;13.40;99.90
26505;DHT22;19493;48.042;7.584;2024-01-25T12:17:32;14.20;99.90
26505;DHT22;19493;48.042;7.584;2024-01-25T12:19:59;14.60;99.90
26505;DHT22;19493;48.042;7.584;2024-01-25T12:22:29;15.00;99.90
26505;DHT22;19493;48.042;7.584;2024-01-25T12:24:58;15.10;99.90
26505;DHT22;19493;48.042;7.584;2024-01-25T12:27:25;15.30;99.90
26505;DHT22;19493;48.042;7.584;2024-01-25T12:29:52;15.40;99.90
26505;DHT22;19493;48.042;7.584;2024-01-25T12:32:21;15.10;99.90
26505;DHT22;19493;48.042;7.584;2024-01-25T12:35:13;15.70;99.90
26505;DHT22;19493;48.042;7.584;2024-01-25T12:37:39;16.00;99.90
26505;DHT22;19493;48.042;7.584;2024-01-25T12:40:05;16.10;99.90
26505;DHT22;19493;48.042;7.584;2024-01-25T12:42:31;16.00;99.90
26505;DHT22;19493;48.042;7.584;2024-01-25T12:44:57;15.40;99.90
26505;DHT22;19493;48.042;7.584;2024-01-25T12:47:22;14.80;99.90
26505;DHT22;19493;48.042;7.584;2024-01-25T12:49:48;14.40;99.90
26505;DHT22;19493;48.042;7.584;2024-01-25T12:52:14;14.30;99.90
26505;DHT22;19493;48.042;7.584;2024-01-25T12:54:41;14.40;99.90
26505;DHT22;19493;48.042;7.584;2024-01-25T12:57:06;14.50;99.90
26505;DHT22;19493;48.042;7.584;2024-01-25T12:59:33;14.50;99.90
26505;DHT22;19493;48.042;7.584;2024-01-25T13:01:59;14.30;99.90
26505;DHT22;19493;48.042;7.584;2024-01-25T13:04:25;14.10;99.90
26505;DHT22;19493;48.042;7.584;2024-01-25T13:06:54;14.00;99.90
26505;DHT22;19493;48.042;7.584;2024-01-25T13:09:21;13.90;99.90
26505;DHT22;19493;48.042;7.584;2024-01-25T13:11:47;13.70;99.90
26505;DHT22;19493;48.042;7.584;2024-01-25T13:14:13;13.70;99.90
26505;DHT22;19493;48.042;7.584;2024-01-25T13:16:39;13.70;99.90
26505;DHT22;19493;48.042;7.584;2024-01-25T13:19:04;13.60;99.90
26505;DHT22;19493;48.042;7.584;2024-01-25T13:21:30;13.60;99.90
26505;DHT22;19493;48.042;7.584;2024-01-25T13:23:56;13.60;99.90
26505;DHT22;19493;48.042;7.584;2024-01-25T13:26:22;13.70;99.90
26505;DHT22;19493;48.042;7.584;2024-01-25T13:28:48;14.00;99.90
26505;DHT22;19493;48.042;7.584;2024-01-25T13:31:14;14.10;99.90
26505;DHT22;19493;48.042;7.584;2024-01-25T13:33:39;14.20;99.90
26505;DHT22;19493;48.042;7.584;2024-01-25T13:36:05;14.30;99.90
26505;DHT22;19493;48.042;7.584;2024-01-25T13:38:34;14.50;99.90
26505;DHT22;19493;48.042;7.584;2024-01-25T13:41:00;14.50;99.90
26505;DHT22;19493;48.042;7.584;2024-01-25T13:43:25;14.40;99.90
26505;DHT22;19493;48.042;7.584;2024-01-25T13:45:51;14.20;99.90
26505;DHT22;19493;48.042;7.584;2024-01-25T13:48:17;14.00;99.90
26505;DHT22;19493;48.042;7.584;2024-01-25T13:50:44;13.80;99.90
26505;DHT22;19493;48.042;7.584;2024-01-25T13:53:10;13.70;99.90
26505;DHT22;19493;48.042;7.584;2024-01-25T13:55:35;13.50;99.90
26505;DHT22;19493;48.042;7.584;2024-01-25T13:58:03;13.30;99.90
26505;DHT22;19493;48.042;7.584;2024-01-25T14:00:29;13.20;99.90
26505;DHT22;19493;48.042;7.584;2024-01-25T14:02:55;13.20;99.90
26505;DHT22;19493;48.042;7.584;2024-01-25T14:05:20;13.10;99.90
26505;DHT22;19493;48.042;7.584;2024-01-25T14:07:46;13.10;99.90
26505;DHT22;19493;48.042;7.584;2024-01-25T14:10:12;13.00;99.90
26505;DHT22;19493;48.042;7.584;2024-01-25T14:12:38;13.00;99.90
26505;DHT22;19493;48.042;7.584;2024-01-25T14:15:04;12.90;99.90
26505;DHT22;19493;48.042;7.584;2024-01-25T14:17:30;12.80;99.90
26505;DHT22;19493;48.042;7.584;2024-01-25T14:19:56;12.80;99.90
26505;DHT22;19493;48.042;7.584;2024-01-25T14:22:22;12.80;99.90
26505;DHT22;19493;48.042;7.584;2024-01-25T14:24:48;12.70;99.90
26505;DHT22;19493;48.042;7.584;2024-01-25T14:27:13;12.70;99.90
26505;DHT22;19493;48.042;7.584;2024-01-25T14:29:39;12.70;99.90
26505;DHT22;19493;48.042;7.584;2024-01-25T14:32:05;12.70;99.90
26505;DHT22;19493;48.042;7.584;2024-01-25T14:34:30;12.60;99.90
26505;DHT22;19493;48.042;7.584;2024-01-25T14:36:56;12.60;99.90
26505;DHT22;19493;48.042;7.584;2024-01-25T14:39:21;12.50;99.90
26505;DHT22;19493;48.042;7.584;2024-01-25T14:41:47;12.50;99.90
26505;DHT22;19493;48.042;7.584;2024-01-25T14:44:13;12.50;99.90
26505;DHT22;19493;48.042;7.584;2024-01-25T14:46:38;12.50;99.90
26505;DHT22;19493;48.042;7.584;2024-01-25T14:49:04;12.40;99.90
26505;DHT22;19493;48.042;7.584;2024-01-25T14:51:31;12.40;99.90
26505;DHT22;19493;48.042;7.584;2024-01-25T14:53:56;12.40;99.90
26505;DHT22;19493;48.042;7.584;2024-01-25T14:56:22;12.30;99.90
26505;DHT22;19493;48.042;7.584;2024-01-25T14:58:47;12.30;99.90
26505;DHT22;19493;48.042;7.584;2024-01-25T15:01:16;12.30;99.90
26505;DHT22;19493;48.042;7.584;2024-01-25T15:03:47;12.30;99.90
26505;DHT22;19493;48.042;7.584;2024-01-25T15:06:13;12.30;99.90
26505;DHT22;19493;48.042;7.584;2024-01-25T15:08:39;12.30;99.90
26505;DHT22;19493;48.042;7.584;2024-01-25T15:11:04;12.40;99.90
26505;DHT22;19493;48.042;7.584;2024-01-25T15:13:30;12.30;99.90
26505;DHT22;19493;48.042;7.584;2024-01-25T15:15:56;12.30;99.90
26505;DHT22;19493;48.042;7.584;2024-01-25T15:18:21;12.40;99.90
26505;DHT22;19493;48.042;7.584;2024-01-25T15:20:47;12.30;99.90
26505;DHT22;19493;48.042;7.584;2024-01-25T15:23:13;12.20;99.90
26505;DHT22;19493;48.042;7.584;2024-01-25T15:25:39;12.20;99.90
26505;DHT22;19493;48.042;7.584;2024-01-25T15:28:05;12.10;99.90
26505;DHT22;19493;48.042;7.584;2024-01-25T15:30:31;12.00;99.90
26505;DHT22;19493;48.042;7.584;2024-01-25T15:32:56;11.90;99.90
26505;DHT22;19493;48.042;7.584;2024-01-25T15:35:22;11.80;99.90